Time;durP1;ratioP1;P1;durP2;ratioP2;P2;SDS_P1;SDS_P2;PMS_P1;PMS_P2;Temp;Humidity;BMP_temperature;BMP_pressure;BME280_temperature;BME280_humidity;BME280_pressure;Samples;Min_cycle;Max_cycle;Signal;HPM_P1;HPM_P2
2021/07/31 00:00:14;;;;;;;18.20;12.65;;;665.70;1843.20;;;;;;5096784;28;20099;-64
2021/07/31 00:02:40;;;;;;;14.93;11.43;;;665.70;1868.80;;;;;;5096205;28;20389;-65
2021/07/31 00:05:07;;;;;;;16.23;11.98;;;665.70;1868.80;;;;;;5096631;28;20024;-67
2021/07/31 00:07:33;;;;;;;25.02;11.38;;;665.70;1868.80;;;;;;5096458;28;20084;-66
2021/07/31 00:09:59;;;;;;;19.02;12.20;;;665.70;1843.20;;;;;;5096735;28;20028;-67
2021/07/31 00:12:25;;;;;;;20.83;12.15;;;665.60;1843.20;;;;;;5096624;28;20494;-66
2021/07/31 00:14:50;;;;;;;16.25;12.95;;;665.60;1843.20;;;;;;5096609;28;20497;-66
2021/07/31 00:17:16;;;;;;;20.30;12.60;;;665.60;1817.60;;;;;;5096576;28;20034;-66
2021/07/31 00:19:42;;;;;;;20.05;12.50;;;665.60;1817.60;;;;;;5096612;28;20020;-66
2021/07/31 00:22:08;;;;;;;20.02;12.77;;;665.60;1817.60;;;;;;5096511;28;20051;-67
2021/07/31 00:24:33;;;;;;;18.88;12.50;;;665.60;1817.60;;;;;;5096598;28;20051;-67
2021/07/31 00:26:59;;;;;;;18.23;12.82;;;665.60;1817.60;;;;;;5096217;28;20024;-66
2021/07/31 00:29:25;;;;;;;22.15;12.43;;;640.80;1792.00;;;;;;5096393;28;20081;-65
2021/07/31 00:31:50;;;;;;;16.60;12.13;;;640.80;1817.60;;;;;;5096360;28;20024;-68
2021/07/31 00:34:16;;;;;;;15.88;12.50;;;640.80;1792.00;;;;;;5096543;28;20031;-66
2021/07/31 00:36:42;;;;;;;18.15;12.32;;;640.80;1817.60;;;;;;5096196;28;20031;-65
2021/07/31 00:39:07;;;;;;;21.23;12.88;;;640.80;1817.60;;;;;;5096290;28;20032;-66
2021/07/31 00:41:33;;;;;;;21.08;12.10;;;640.70;1843.20;;;;;;5095803;28;20070;-65
2021/07/31 00:43:59;;;;;;;19.00;12.68;;;640.70;1843.20;;;;;;5095908;28;20123;-66
2021/07/31 00:46:25;;;;;;;19.17;12.55;;;640.60;1868.80;;;;;;5096046;28;20024;-67
2021/07/31 00:48:52;;;;;;;18.23;12.55;;;640.60;1868.80;;;;;;5095315;28;20474;-66
2021/07/31 00:51:18;;;;;;;20.00;12.40;;;640.60;1868.80;;;;;;5096082;28;20489;-66
2021/07/31 00:53:45;;;;;;;16.45;11.48;;;640.60;1843.20;;;;;;5095976;28;20024;-65
2021/07/31 00:56:12;;;;;;;19.38;11.77;;;640.60;1868.80;;;;;;5095573;28;20050;-68
2021/07/31 00:58:38;;;;;;;18.42;12.15;;;640.60;1843.20;;;;;;5095789;28;20406;-66
2021/07/31 01:01:04;;;;;;;18.63;12.40;;;640.50;1843.20;;;;;;5095678;28;20024;-65
2021/07/31 01:03:29;;;;;;;20.75;12.57;;;640.50;1843.20;;;;;;5095666;28;20024;-67
2021/07/31 01:05:55;;;;;;;19.13;11.38;;;640.50;1843.20;;;;;;5095671;28;20416;-64
2021/07/31 01:08:22;;;;;;;20.75;12.02;;;640.50;1843.20;;;;;;5096003;28;20028;-65
2021/07/31 01:10:48;;;;;;;15.50;11.05;;;640.50;1817.60;;;;;;5095266;28;20020;-64
2021/07/31 01:13:15;;;;;;;21.45;11.75;;;640.50;1817.60;;;;;;5095522;28;20140;-65
2021/07/31 01:16:00;;;;;;;15.07;11.00;;;640.50;1817.60;;;;;;5095397;28;20085;-64
2021/07/31 01:18:26;;;;;;;16.02;10.30;;;640.40;1817.60;;;;;;5095492;28;20024;-64
2021/07/31 01:20:52;;;;;;;17.67;10.50;;;640.40;1817.60;;;;;;5095467;28;20062;-67
2021/07/31 01:23:17;;;;;;;13.27;10.52;;;640.40;1792.00;;;;;;5095296;28;20028;-67
2021/07/31 01:25:43;;;;;;;14.65;9.93;;;640.40;1792.00;;;;;;5095112;28;20028;-66
2021/07/31 01:28:09;;;;;;;15.40;9.90;;;640.30;1766.40;;;;;;5095713;28;20036;-65
2021/07/31 01:30:35;;;;;;;19.45;9.73;;;640.40;1766.40;;;;;;5095099;28;20038;-66
2021/07/31 01:33:01;;;;;;;17.77;10.15;;;640.40;1766.40;;;;;;5095093;28;20490;-64
2021/07/31 01:35:26;;;;;;;11.82;8.88;;;640.40;1740.80;;;;;;5094919;28;20103;-65
2021/07/31 01:37:52;;;;;;;19.25;9.55;;;640.40;1740.80;;;;;;5095098;28;20020;-64
2021/07/31 01:40:18;;;;;;;14.02;9.18;;;640.40;1740.80;;;;;;5094939;28;20024;-68
2021/07/31 01:42:44;;;;;;;15.32;10.00;;;640.30;1740.80;;;;;;5094615;28;20058;-65
2021/07/31 01:45:10;;;;;;;15.35;9.02;;;640.30;1766.40;;;;;;5094466;28;20020;-65
2021/07/31 01:47:35;;;;;;;13.57;9.25;;;640.30;1766.40;;;;;;5094324;28;20024;-68
2021/07/31 01:50:01;;;;;;;21.25;9.30;;;640.20;1766.40;;;;;;5094797;28;20039;-64
2021/07/31 01:52:27;;;;;;;15.35;8.70;;;640.20;1766.40;;;;;;5094643;28;20077;-66
2021/07/31 01:54:53;;;;;;;14.20;9.25;;;640.20;1740.80;;;;;;5092821;28;20055;-63
2021/07/31 01:57:18;;;;;;;14.30;8.52;;;640.20;1740.80;;;;;;5094362;28;20028;-64
2021/07/31 01:59:44;;;;;;;12.05;9.25;;;640.20;1740.80;;;;;;5093693;28;20136;-64
2021/07/31 02:02:10;;;;;;;12.70;8.70;;;640.20;1715.20;;;;;;5094195;28;20027;-65
2021/07/31 02:04:36;;;;;;;15.38;8.57;;;640.20;1715.20;;;;;;5094298;28;20035;-67
2021/07/31 02:07:02;;;;;;;14.75;8.57;;;640.10;1715.20;;;;;;5094579;28;20020;-65
2021/07/31 02:09:28;;;;;;;19.60;8.93;;;640.10;1715.20;;;;;;5094231;28;20032;-63
2021/07/31 02:11:54;;;;;;;23.77;9.27;;;640.10;1715.20;;;;;;5094311;28;20042;-67
2021/07/31 02:14:20;;;;;;;17.75;9.23;;;640.10;1715.20;;;;;;5094326;28;20028;-63
2021/07/31 02:16:46;;;;;;;17.85;9.20;;;640.10;1715.20;;;;;;5093950;28;20025;-63
2021/07/31 02:19:12;;;;;;;19.20;8.90;;;640.10;1740.80;;;;;;5094348;28;20039;-67
2021/07/31 02:21:38;;;;;;;17.10;8.88;;;640.10;1715.20;;;;;;5094251;28;20374;-64
2021/07/31 02:24:03;;;;;;;18.13;9.15;;;640.10;1715.20;;;;;;5094094;28;20028;-65
2021/07/31 02:26:29;;;;;;;17.08;8.75;;;640.10;1715.20;;;;;;5093942;28;20115;-64
2021/07/31 02:28:55;;;;;;;16.52;9.25;;;640.10;1740.80;;;;;;5093688;28;20485;-65
2021/07/31 02:31:21;;;;;;;13.60;9.32;;;640.10;1740.80;;;;;;5093902;28;20020;-65
2021/07/31 02:33:46;;;;;;;11.65;9.40;;;640.10;1740.80;;;;;;5093918;28;20020;-66
2021/07/31 02:36:12;;;;;;;13.32;9.68;;;640.10;1766.40;;;;;;5093853;28;20533;-66
2021/07/31 02:38:38;;;;;;;13.20;9.50;;;640.10;1766.40;;;;;;5093267;28;20028;-64
2021/07/31 02:41:04;;;;;;;18.20;10.10;;;640.10;1766.40;;;;;;5093079;28;20050;-65
2021/07/31 02:43:30;;;;;;;24.08;10.23;;;640.10;1766.40;;;;;;5093550;28;20040;-67
2021/07/31 02:46:02;;;;;;;13.00;9.27;;;640.10;1766.40;;;;;;5093940;28;20032;-67
2021/07/31 02:48:27;;;;;;;14.05;9.35;;;640.10;1766.40;;;;;;5093772;28;20044;-68
2021/07/31 02:51:10;;;;;;;15.55;9.10;;;640.00;1766.40;;;;;;5093888;28;20031;-68
2021/07/31 02:53:36;;;;;;;13.93;9.20;;;640.00;1766.40;;;;;;5093768;28;20471;-65
2021/07/31 02:56:03;;;;;;;15.07;9.20;;;640.00;1766.40;;;;;;5093656;28;20032;-65
2021/07/31 02:58:28;;;;;;;18.55;9.77;;;615.30;1766.40;;;;;;5093933;28;20099;-66
2021/07/31 03:00:54;;;;;;;15.88;9.52;;;615.30;1766.40;;;;;;5093786;28;20056;-68
2021/07/31 03:03:20;;;;;;;15.65;9.18;;;615.30;1766.40;;;;;;5093799;28;20039;-67
2021/07/31 03:05:56;;;;;;;18.75;9.18;;;615.30;1766.40;;;;;;5093433;28;20363;-64
2021/07/31 03:08:23;;;;;;;12.55;8.77;;;615.30;1766.40;;;;;;5093804;28;20051;-65
2021/07/31 03:11:03;;;;;;;19.35;9.93;;;615.30;1792.00;;;;;;5094285;28;20488;-67
2021/07/31 03:13:30;;;;;;;18.50;9.88;;;615.30;1792.00;;;;;;5097781;28;20046;-67
2021/07/31 03:15:56;;;;;;;18.02;9.82;;;615.30;1792.00;;;;;;5097592;28;20458;-67
2021/07/31 03:18:22;;;;;;;14.35;10.32;;;615.30;1792.00;;;;;;5097785;28;20016;-66
2021/07/31 03:20:50;;;;;;;17.27;10.65;;;615.30;1792.00;;;;;;5097478;28;20024;-67
2021/07/31 03:23:17;;;;;;;15.38;8.95;;;615.20;1792.00;;;;;;5097592;28;20035;-67
2021/07/31 03:25:43;;;;;;;15.68;10.35;;;615.20;1792.00;;;;;;5097275;28;20477;-64
2021/07/31 03:28:09;;;;;;;16.98;9.70;;;615.20;1792.00;;;;;;5096926;28;20104;-67
2021/07/31 03:30:42;;;;;;;14.52;9.90;;;615.20;1792.00;;;;;;5097412;28;20081;-67
2021/07/31 03:33:11;;;;;;;14.68;9.57;;;615.10;1792.00;;;;;;5097598;28;20024;-67
2021/07/31 03:35:39;;;;;;;16.05;9.82;;;615.20;1792.00;;;;;;5097559;28;20023;-67
2021/07/31 03:38:05;;;;;;;17.52;9.90;;;615.20;1817.60;;;;;;5097206;28;20034;-68
2021/07/31 03:40:31;;;;;;;18.90;11.13;;;615.30;1817.60;;;;;;5097259;28;20025;-65
2021/07/31 03:42:57;;;;;;;14.15;9.27;;;615.30;1792.00;;;;;;5097006;28;20131;-67
2021/07/31 03:45:23;;;;;;;20.45;10.85;;;615.30;1817.60;;;;;;5096848;28;20024;-68
2021/07/31 03:47:49;;;;;;;17.55;9.90;;;615.30;1817.60;;;;;;5097072;28;20035;-66
2021/07/31 03:50:14;;;;;;;14.70;9.50;;;615.30;1817.60;;;;;;5097148;28;20032;-65
2021/07/31 03:52:40;;;;;;;25.10;9.45;;;615.30;1817.60;;;;;;5096923;28;20098;-67
2021/07/31 03:55:07;;;;;;;12.35;9.13;;;615.30;1817.60;;;;;;5096810;28;20077;-67
2021/07/31 03:57:33;;;;;;;10.88;8.05;;;615.30;1792.00;;;;;;5096789;28;20101;-67
2021/07/31 03:59:59;;;;;;;13.18;8.70;;;615.30;1766.40;;;;;;5096703;28;20466;-65
2021/07/31 04:02:25;;;;;;;13.10;8.32;;;615.30;1766.40;;;;;;5095180;28;20036;-68
2021/07/31 04:04:51;;;;;;;14.27;8.85;;;640.00;1740.80;;;;;;5096904;28;20103;-65
2021/07/31 04:07:17;;;;;;;16.27;7.65;;;640.00;1715.20;;;;;;5096705;28;20393;-68
2021/07/31 04:09:43;;;;;;;15.60;8.05;;;640.00;1715.20;;;;;;5096642;28;20039;-67
2021/07/31 04:12:08;;;;;;;16.98;8.40;;;640.10;1715.20;;;;;;5096508;28;20024;-66
2021/07/31 04:14:34;;;;;;;22.08;7.85;;;640.10;1715.20;;;;;;5096681;28;20024;-67
2021/07/31 04:17:03;;;;;;;11.80;7.75;;;640.20;1689.60;;;;;;5096369;28;20039;-67
2021/07/31 04:19:29;;;;;;;13.63;7.43;;;640.30;1664.00;;;;;;5096596;28;20417;-68
2021/07/31 04:21:56;;;;;;;16.00;8.25;;;640.30;1664.00;;;;;;5096455;28;20024;-69
2021/07/31 04:24:26;;;;;;;14.30;7.97;;;640.40;1664.00;;;;;;5095975;28;20036;-68
2021/07/31 04:26:52;;;;;;;15.63;8.80;;;640.50;1664.00;;;;;;5096095;28;20103;-68
2021/07/31 04:29:18;;;;;;;13.15;7.47;;;640.50;1664.00;;;;;;5094364;28;20049;-68
2021/07/31 04:31:45;;;;;;;14.27;8.35;;;640.60;1664.00;;;;;;5096256;28;20020;-67
2021/07/31 04:34:11;;;;;;;21.92;9.30;;;640.60;1664.00;;;;;;5096551;28;20469;-67
2021/07/31 04:36:37;;;;;;;20.58;7.75;;;640.60;1664.00;;;;;;5095687;28;20107;-67
2021/07/31 04:39:03;;;;;;;16.30;8.10;;;640.70;1664.00;;;;;;5096090;28;20111;-67
2021/07/31 04:41:30;;;;;;;15.73;9.48;;;640.80;1664.00;;;;;;5096094;28;20373;-68
2021/07/31 04:43:55;;;;;;;14.10;7.90;;;640.80;1664.00;;;;;;5095664;28;20048;-67
2021/07/31 04:46:21;;;;;;;18.70;8.13;;;640.80;1664.00;;;;;;5095908;28;20024;-66
2021/07/31 04:48:47;;;;;;;13.75;8.23;;;640.90;1664.00;;;;;;5095711;28;20028;-67
2021/07/31 04:51:13;;;;;;;21.08;7.70;;;665.60;1664.00;;;;;;5095809;28;20050;-68
2021/07/31 04:53:39;;;;;;;15.40;7.72;;;665.70;1664.00;;;;;;5095651;28;20024;-68
2021/07/31 04:56:05;;;;;;;12.52;8.00;;;665.70;1664.00;;;;;;5095752;28;20043;-68
2021/07/31 04:58:31;;;;;;;18.75;7.40;;;665.80;1638.40;;;;;;5095519;28;20062;-68
2021/07/31 05:00:59;;;;;;;18.38;7.80;;;665.80;1638.40;;;;;;5095872;28;20024;-68
2021/07/31 05:03:25;;;;;;;16.75;8.52;;;666.00;1612.80;;;;;;5095598;28;20428;-68
2021/07/31 05:05:51;;;;;;;15.55;8.77;;;666.10;1612.80;;;;;;5095360;28;20016;-68
2021/07/31 05:08:17;;;;;;;18.40;8.52;;;666.10;1612.80;;;;;;5095424;28;20081;-68
2021/07/31 05:10:48;;;;;;;16.83;7.95;;;666.10;1612.80;;;;;;5095705;28;20470;-68
2021/07/31 05:13:14;;;;;;;20.63;8.90;;;666.10;1587.20;;;;;;5095294;28;20031;-67
2021/07/31 05:15:41;;;;;;;11.93;8.50;;;666.20;1612.80;;;;;;5095305;28;20059;-68
2021/07/31 05:18:08;;;;;;;18.67;9.10;;;666.30;1587.20;;;;;;5095467;28;20032;-69
2021/07/31 05:20:38;;;;;;;13.35;8.73;;;666.40;1587.20;;;;;;5095409;28;20020;-68
2021/07/31 05:23:03;;;;;;;15.32;8.18;;;666.40;1587.20;;;;;;5095434;28;20028;-68
2021/07/31 05:25:29;;;;;;;12.15;7.55;;;666.40;1561.60;;;;;;5095324;28;20042;-68
2021/07/31 05:27:55;;;;;;;10.57;8.15;;;666.40;1561.60;;;;;;5095069;28;20034;-68
2021/07/31 05:30:21;;;;;;;11.40;7.80;;;666.40;1561.60;;;;;;5095197;28;20034;-68
2021/07/31 05:32:47;;;;;;;12.43;7.22;;;666.50;1561.60;;;;;;5095265;28;20027;-71
2021/07/31 05:35:13;;;;;;;18.33;7.57;;;666.50;1561.60;;;;;;5093977;28;20028;-71
2021/07/31 05:37:39;;;;;;;13.93;7.57;;;691.20;1561.60;;;;;;5094926;28;20028;-70
2021/07/31 05:40:05;;;;;;;17.52;7.15;;;691.20;1561.60;;;;;;5094908;28;20074;-69
2021/07/31 05:42:30;;;;;;;15.90;6.90;;;691.20;1561.60;;;;;;5094614;28;20390;-71
2021/07/31 05:44:57;;;;;;;15.15;8.20;;;691.30;1561.60;;;;;;5094544;28;20043;-70
2021/07/31 05:47:27;;;;;;;12.88;8.13;;;691.40;1536.00;;;;;;5094884;28;20027;-70
2021/07/31 05:49:57;;;;;;;12.00;8.27;;;691.50;1536.00;;;;;;5094536;28;20485;-68
2021/07/31 05:52:26;;;;;;;13.60;7.25;;;691.50;1536.00;;;;;;5094679;28;20032;-70
2021/07/31 05:54:53;;;;;;;15.80;8.60;;;691.60;1510.40;;;;;;5094712;28;20413;-70
2021/07/31 05:57:19;;;;;;;12.32;7.38;;;691.60;1484.80;;;;;;5094418;28;20017;-69
2021/07/31 05:59:45;;;;;;;13.60;6.22;;;691.70;1459.20;;;;;;5094793;28;20028;-70
2021/07/31 06:02:11;;;;;;;16.77;7.07;;;691.70;1459.20;;;;;;5094338;28;20382;-73
2021/07/31 06:04:37;;;;;;;13.02;7.10;;;691.80;1459.20;;;;;;5094530;28;20020;-67
2021/07/31 06:07:06;;;;;;;13.90;7.47;;;691.80;1459.20;;;;;;5094455;28;20024;-68
2021/07/31 06:09:36;;;;;;;10.55;6.82;;;692.00;1459.20;;;;;;5094312;28;20394;-68
2021/07/31 06:12:02;;;;;;;10.57;6.57;;;692.00;1459.20;;;;;;5094052;28;20038;-68
2021/07/31 06:14:28;;;;;;;28.35;9.20;;;692.10;1433.60;;;;;;5094511;28;20028;-68
2021/07/31 06:16:54;;;;;;;24.10;10.88;;;716.80;1459.20;;;;;;5094701;28;20034;-69
2021/07/31 06:19:20;;;;;;;30.60;12.13;;;716.90;1459.20;;;;;;5094213;28;20020;-69
2021/07/31 06:21:46;;;;;;;20.40;10.73;;;716.90;1433.60;;;;;;5094246;28;20546;-69
2021/07/31 06:24:12;;;;;;;15.15;9.18;;;717.00;1433.60;;;;;;5094204;28;20115;-68
2021/07/31 06:26:38;;;;;;;22.77;8.88;;;717.20;1408.00;;;;;;5094011;28;20023;-69
2021/07/31 06:29:04;;;;;;;29.15;8.10;;;717.20;1408.00;;;;;;5094081;28;20119;-68
2021/07/31 06:31:30;;;;;;;21.40;7.18;;;717.30;1382.40;;;;;;5093925;28;20414;-69
2021/07/31 06:33:57;;;;;;;17.02;6.55;;;717.50;1408.00;;;;;;5093896;28;20020;-68
2021/07/31 06:36:23;;;;;;;15.98;7.32;;;717.60;1382.40;;;;;;5093958;28;20028;-68
2021/07/31 06:38:49;;;;;;;15.25;7.82;;;742.40;1408.00;;;;;;5094297;28;20028;-69
2021/07/31 06:41:15;;;;;;;15.05;7.38;;;742.50;1382.40;;;;;;5093672;28;20050;-69
2021/07/31 06:43:41;;;;;;;17.48;6.85;;;742.70;1382.40;;;;;;5093683;28;20044;-68
2021/07/31 06:46:10;;;;;;;14.60;7.68;;;742.90;1356.80;;;;;;5093597;28;20016;-68
2021/07/31 06:48:36;;;;;;;20.92;7.18;;;743.10;1331.20;;;;;;5094101;28;20097;-69
2021/07/31 06:51:02;;;;;;;18.88;8.77;;;768.00;1331.20;;;;;;5093674;28;20577;-70
2021/07/31 06:53:28;;;;;;;22.35;7.50;;;768.20;1305.60;;;;;;5093893;28;20031;-70
2021/07/31 06:55:57;;;;;;;22.92;9.05;;;768.50;1280.00;;;;;;5093460;28;20024;-69
2021/07/31 06:58:22;;;;;;;15.05;7.32;;;768.70;1280.00;;;;;;5092418;28;20035;-69
2021/07/31 07:00:48;;;;;;;18.13;7.90;;;793.60;1280.00;;;;;;5093332;28;20028;-65
2021/07/31 07:03:14;;;;;;;10.45;7.28;;;793.90;1254.40;;;;;;5092971;28;20377;-69
2021/07/31 07:05:39;;;;;;;11.82;6.60;;;794.00;1228.80;;;;;;5093671;28;20424;-69
2021/07/31 07:08:05;;;;;;;14.02;7.40;;;794.30;1228.80;;;;;;5093000;28;20035;-67
2021/07/31 07:10:32;;;;;;;11.80;7.32;;;794.50;1203.20;;;;;;5093583;28;20466;-65
2021/07/31 07:12:58;;;;;;;9.82;6.30;;;819.20;1203.20;;;;;;5093157;28;20024;-65
